Murphy, Oregon
Current Conditions -  °F | °C
As of 8:56 AM on Thursday 27 Nov 2014 (Local Time) from KSXT Reporting Station
Overcast Overcast  
Wind Chill: 44°   Ceiling: 6000
Heat Index: 49°   Visibility: 10mi
Dew Point: 31°   Wind: 13mph
Humidity: 50%   Direction: 180°S
Pressure: 30.08"   Gusts: NA
Location:  42.35°N, 123.34°W
Report Text: KSXT 271656Z AUTO 18011KT 10SM BKN060 OVC090 09/M01 A3008 RMK AO2 SLP174 T00941006
Loading
Personal Weather Stations






























Interactive Weather Map New forecast layout! Learn more

10-Day Weather Forecast

Advertisements
Track Severe Weather on mobile